createdAt,value
2023-04-18T00:01:03.266Z,100641.84
2023-04-18T00:06:05.941Z,100647.56
2023-04-18T00:11:07.767Z,100646.81
2023-04-18T00:16:09.544Z,100644.41
2023-04-18T00:21:11.626Z,100634.91
2023-04-18T00:26:13.540Z,100641.19
2023-04-18T00:31:16.127Z,100630.66
2023-04-18T00:36:17.864Z,100634.88
2023-04-18T00:41:21.880Z,100636.69
2023-04-18T00:46:23.751Z,100635.13
2023-04-18T00:51:25.868Z,100632.66
2023-04-18T00:56:29.425Z,100630.16
2023-04-18T01:01:33.798Z,100628.69
2023-04-18T01:06:36.985Z,100633.13
2023-04-18T01:11:38.748Z,100623.78
2023-04-18T01:16:40.500Z,100620.16
2023-04-18T01:21:44.003Z,100615.13
2023-04-18T01:26:48.252Z,100614.38
2023-04-18T01:31:50.201Z,100612.84
2023-04-18T01:36:52.036Z,100616.56
2023-04-18T01:41:53.806Z,100613.81
2023-04-18T01:46:55.759Z,100612.00
2023-04-18T01:51:57.567Z,100616.13
2023-04-18T01:56:59.356Z,100610.78
2023-04-18T02:02:01.203Z,100607.28
2023-04-18T02:07:03.117Z,100610.03
2023-04-18T02:12:05.008Z,100610.09
2023-04-18T02:17:06.833Z,100611.81
2023-04-18T02:22:08.560Z,100611.91
2023-04-18T02:27:11.198Z,100615.38
2023-04-18T02:32:13.071Z,100618.09
2023-04-18T02:37:18.029Z,100618.16
2023-04-18T02:42:19.895Z,100616.22
2023-04-18T02:47:21.833Z,100615.53
2023-04-18T02:52:25.534Z,100619.91
2023-04-18T02:57:27.346Z,100611.19
2023-04-18T03:02:53.172Z,100612.28
2023-04-18T03:08:13.648Z,100613.28
2023-04-18T03:13:17.014Z,100621.00
2023-04-18T03:18:19.056Z,100618.50
2023-04-18T03:23:22.003Z,100627.00
2023-04-18T03:28:23.950Z,100625.22
2023-04-18T03:33:28.871Z,100617.38
2023-04-18T03:38:41.510Z,100623.59
2023-04-18T03:43:43.851Z,100627.97
2023-04-18T03:48:46.605Z,100627.09
2023-04-18T03:53:48.526Z,100627.00
2023-04-18T03:58:52.090Z,100626.94
2023-04-18T04:03:55.622Z,100627.00
2023-04-18T04:08:59.316Z,100630.53
2023-04-18T04:14:02.337Z,100632.16
2023-04-18T04:19:11.569Z,100638.03
2023-04-18T04:24:20.520Z,100639.00
2023-04-18T04:29:23.908Z,100639.31
2023-04-18T04:34:27.048Z,100647.13
2023-04-18T04:39:29.499Z,100646.16
2023-04-18T04:44:53.671Z,100647.72
2023-04-18T04:49:56.857Z,100644.13
2023-04-18T04:54:58.591Z,100654.09
2023-04-18T05:00:01.264Z,100654.66
2023-04-18T05:05:03.545Z,100651.84
2023-04-18T05:10:05.693Z,100653.00
2023-04-18T05:15:07.878Z,100651.50
2023-04-18T05:20:11.605Z,100657.25
2023-04-18T05:25:13.645Z,100654.44
2023-04-18T05:30:17.166Z,100660.97
2023-04-18T05:35:19.481Z,100652.31
2023-04-18T05:40:22.273Z,100658.34
2023-04-18T05:45:24.514Z,100667.41
2023-04-18T05:50:27.522Z,100660.25
2023-04-18T05:55:30.044Z,100660.97
2023-04-18T06:00:32.225Z,100656.56
2023-04-18T06:05:34.159Z,100657.66
2023-04-18T06:10:37.749Z,100671.59
2023-04-18T06:15:41.074Z,100673.72
2023-04-18T06:20:44.047Z,100670.22
2023-04-18T06:25:45.853Z,100673.41
2023-04-18T06:30:47.606Z,100681.50
2023-04-18T06:35:49.379Z,100683.66
2023-04-18T06:40:51.207Z,100676.38
2023-04-18T06:45:53.017Z,100675.09
2023-04-18T06:50:54.910Z,100680.38
2023-04-18T06:55:56.767Z,100686.78
2023-04-18T07:00:58.724Z,100684.88
2023-04-18T07:06:00.538Z,100689.13
2023-04-18T07:11:02.459Z,100686.16
2023-04-18T07:16:04.331Z,100687.63
2023-04-18T07:21:09.453Z,100695.78
2023-04-18T07:26:13.385Z,100692.53
2023-04-18T07:31:16.735Z,100696.03
2023-04-18T07:36:18.699Z,100706.22
2023-04-18T07:41:20.521Z,100705.38
2023-04-18T07:46:22.341Z,100712.72
2023-04-18T07:51:26.653Z,100709.44
2023-04-18T07:56:28.446Z,100701.97
2023-04-18T08:01:30.267Z,100704.34
2023-04-18T08:06:32.258Z,100712.09
2023-04-18T08:11:34.527Z,100710.78
2023-04-18T08:16:36.831Z,100703.66
2023-04-18T08:21:39.378Z,100705.00
2023-04-18T08:26:41.128Z,100700.97
2023-04-18T08:31:42.944Z,100698.78
2023-04-18T08:36:44.732Z,100710.34
2023-04-18T08:41:53.960Z,100716.09
2023-04-18T08:46:56.398Z,100713.38
2023-04-18T08:52:01.148Z,100708.81
2023-04-18T08:57:08.805Z,100703.13
2023-04-18T09:02:11.890Z,100706.06
2023-04-18T09:07:15.934Z,100700.09
2023-04-18T09:12:23.421Z,100702.38
2023-04-18T09:17:46.909Z,100701.56
2023-04-18T09:22:52.535Z,100698.97
2023-04-18T09:27:54.300Z,100696.00
2023-04-18T09:33:00.501Z,100698.72
2023-04-18T09:38:02.980Z,100705.72
2023-04-18T09:43:20.598Z,100714.47
2023-04-18T09:48:22.306Z,100695.47
2023-04-18T09:53:24.688Z,100711.84
2023-04-18T09:58:32.997Z,100702.84
2023-04-18T10:03:44.441Z,100701.53
2023-04-18T10:08:49.158Z,100689.25
2023-04-18T10:13:55.961Z,100693.56
2023-04-18T10:18:58.445Z,100680.41
2023-04-18T10:24:00.249Z,100689.22
2023-04-18T10:29:02.618Z,100684.78
2023-04-18T10:34:07.484Z,100680.47
2023-04-18T10:39:26.040Z,100668.44
2023-04-18T10:44:28.013Z,100674.81
2023-04-18T10:49:32.964Z,100673.31
2023-04-18T10:54:43.837Z,100676.53
2023-04-18T10:59:50.673Z,100667.78
2023-04-18T11:05:06.849Z,100657.38
2023-04-18T11:10:09.848Z,100652.78
2023-04-18T11:15:22.682Z,100655.50
2023-04-18T11:20:24.635Z,100639.53
2023-04-18T11:25:32.103Z,100644.28
2023-04-18T11:30:39.076Z,100640.69
2023-04-18T11:35:44.519Z,100636.63
2023-04-18T11:40:50.556Z,100638.59
2023-04-18T11:46:00.003Z,100629.28
2023-04-18T11:51:01.930Z,100634.50
2023-04-18T11:56:05.019Z,100636.50
2023-04-18T12:01:20.125Z,100630.31
2023-04-18T12:06:24.305Z,100643.84
2023-04-18T12:11:26.346Z,100640.00
2023-04-18T12:16:28.404Z,100641.03
2023-04-18T12:21:33.115Z,100630.47
2023-04-18T12:26:34.913Z,100624.84
2023-04-18T12:31:36.738Z,100624.41
2023-04-18T12:36:38.632Z,100621.81
2023-04-18T12:41:40.428Z,100628.97
2023-04-18T12:46:42.321Z,100626.63
2023-04-18T12:51:44.693Z,100630.88
2023-04-18T12:56:46.488Z,100627.72
2023-04-18T13:01:48.260Z,100624.81
2023-04-18T13:06:50.058Z,100629.97
2023-04-18T13:11:51.809Z,100638.97
2023-04-18T13:16:53.604Z,100619.81
2023-04-18T13:21:55.868Z,100621.63
2023-04-18T13:26:57.665Z,100636.09
2023-04-18T13:31:59.473Z,100621.28
2023-04-18T13:37:01.541Z,100623.50
2023-04-18T13:42:04.406Z,100621.47
2023-04-18T13:47:07.713Z,100610.75
2023-04-18T13:52:09.624Z,100620.19
2023-04-18T13:57:11.797Z,100614.44
2023-04-18T14:02:13.748Z,100611.63
2023-04-18T14:07:15.653Z,100611.88
2023-04-18T14:12:17.396Z,100605.84
2023-04-18T14:17:19.187Z,100603.00
2023-04-18T14:22:21.179Z,100593.50
2023-04-18T14:27:23.109Z,100598.78
2023-04-18T14:32:24.892Z,100596.25
2023-04-18T14:37:26.696Z,100594.66
2023-04-18T14:42:28.436Z,100602.69
2023-04-18T14:47:31.950Z,100591.41
2023-04-18T14:52:33.777Z,100589.06
2023-04-18T14:57:37.137Z,100588.78
2023-04-18T15:02:39.737Z,100588.03
2023-04-18T15:07:43.527Z,100582.09
2023-04-18T15:12:46.906Z,100577.19
2023-04-18T15:17:48.670Z,100589.59
2023-04-18T15:22:50.688Z,100596.50
2023-04-18T15:27:52.948Z,100584.63
2023-04-18T15:32:54.826Z,100573.06
2023-04-18T15:37:57.711Z,100578.84
2023-04-18T15:42:59.718Z,100577.25
2023-04-18T15:48:02.195Z,100584.13
2023-04-18T15:53:04.035Z,100581.59
2023-04-18T15:58:06.876Z,100588.56
2023-04-18T16:03:10.465Z,100582.13
2023-04-18T16:08:12.320Z,100586.22
2023-04-18T16:13:14.171Z,100591.75
2023-04-18T16:18:15.908Z,100590.56
2023-04-18T16:23:17.805Z,100613.91
2023-04-18T16:28:19.566Z,100611.56
2023-04-18T16:33:24.771Z,100619.19
2023-04-18T16:38:27.469Z,100625.09
2023-04-18T16:43:31.086Z,100622.09
2023-04-18T16:48:32.872Z,100627.44
2023-04-18T16:53:34.714Z,100624.50
2023-04-18T16:58:36.475Z,100641.88
2023-04-18T17:03:38.591Z,100641.94
2023-04-18T17:08:40.631Z,100648.94
2023-04-18T17:13:42.554Z,100645.69
2023-04-18T17:18:44.316Z,100636.50
2023-04-18T17:23:46.099Z,100658.66
2023-04-18T17:28:47.819Z,100663.31
2023-04-18T17:33:51.211Z,100650.53
2023-04-18T17:38:53.163Z,100656.13
2023-04-18T17:43:54.941Z,100669.41
2023-04-18T17:48:57.066Z,100665.09
2023-04-18T17:54:01.478Z,100674.84
2023-04-18T17:59:03.339Z,100666.78
2023-04-18T18:04:06.260Z,100683.72
2023-04-18T18:09:08.301Z,100686.81
2023-04-18T18:14:10.607Z,100676.63
2023-04-18T18:19:14.533Z,100688.00
2023-04-18T18:24:18.700Z,100701.97
2023-04-18T18:29:20.531Z,100696.53
2023-04-18T18:34:22.841Z,100699.06
2023-04-18T18:39:24.594Z,100696.19
2023-04-18T18:44:26.561Z,100705.91
2023-04-18T18:49:28.522Z,100705.31
2023-04-18T18:54:31.581Z,100719.16
2023-04-18T18:59:33.307Z,100727.59
2023-04-18T19:04:35.147Z,100728.28
2023-04-18T19:09:37.050Z,100733.16
2023-04-18T19:14:39.790Z,100732.56
2023-04-18T19:19:43.577Z,100738.09
2023-04-18T19:24:45.444Z,100737.38
2023-04-18T19:29:47.175Z,100737.63
2023-04-18T19:34:48.960Z,100744.28
2023-04-18T19:39:50.752Z,100745.38
2023-04-18T19:44:52.509Z,100749.72
2023-04-18T19:49:54.276Z,100760.66
2023-04-18T19:54:56.182Z,100750.09
2023-04-18T19:59:57.910Z,100757.09
2023-04-18T20:04:59.885Z,100759.66
2023-04-18T20:10:01.947Z,100760.97
2023-04-18T20:15:03.935Z,100760.50
2023-04-18T20:20:08.901Z,100760.34
2023-04-18T20:25:10.832Z,100763.19
2023-04-18T20:30:12.866Z,100756.66
2023-04-18T20:35:14.653Z,100756.56
2023-04-18T20:40:16.633Z,100751.88
2023-04-18T20:45:18.441Z,100749.72
2023-04-18T20:50:20.655Z,100760.22
2023-04-18T20:55:22.380Z,100755.03
2023-04-18T21:00:24.536Z,100757.69
2023-04-18T21:05:26.286Z,100757.00
2023-04-18T21:10:28.068Z,100759.41
2023-04-18T21:15:29.903Z,100759.66
2023-04-18T21:20:31.772Z,100767.28
2023-04-18T21:25:33.639Z,100759.81
2023-04-18T21:30:35.372Z,100754.91
2023-04-18T21:35:37.092Z,100762.84
2023-04-18T21:40:38.834Z,100772.03
2023-04-18T21:45:40.737Z,100774.03
2023-04-18T21:50:43.178Z,100768.47
2023-04-18T21:55:44.978Z,100770.63
2023-04-18T22:00:46.756Z,100767.09
2023-04-18T22:05:48.497Z,100772.41
2023-04-18T22:10:50.592Z,100766.50
2023-04-18T22:15:52.371Z,100776.69
2023-04-18T22:20:54.871Z,100773.31
2023-04-18T22:25:56.713Z,100763.91
2023-04-18T22:30:58.675Z,100759.59
2023-04-18T22:36:00.864Z,100763.28
2023-04-18T22:41:02.574Z,100766.19
2023-04-18T22:46:04.354Z,100761.59
2023-04-18T22:51:06.253Z,100764.09
2023-04-18T22:56:08.136Z,100776.13
2023-04-18T23:01:09.897Z,100767.34
2023-04-18T23:06:11.702Z,100764.81
2023-04-18T23:11:13.652Z,100768.09
2023-04-18T23:16:15.481Z,100769.59
2023-04-18T23:21:17.579Z,100765.25
2023-04-18T23:26:19.326Z,100777.56
2023-04-18T23:31:21.870Z,100771.34
2023-04-18T23:36:23.681Z,100765.59
2023-04-18T23:41:25.425Z,100760.56
2023-04-18T23:46:27.697Z,100773.41
2023-04-18T23:51:29.477Z,100767.28
2023-04-18T23:56:31.191Z,100768.81
